Terminal Aerodrome Forecast
Issued by NWS

Home | Current Version | Previous Version | Text Only | Print | Product List | Glossary Off
Versions: 1 2 3 4 5 6 7 8 9 10 11 12

930
FTUS43 KABR 222328 AAB
TAFPIR
TAF AMD
KPIR 222328Z 2223/2324 25010KT P6SM SKC
     FM230100 19009KT P6SM SKC
     FM231400 18015KT P6SM SCT250=

USA.gov is the U.S. government's official web portal to all federal, state and local government web resources and services.